»·PEaware :: SKW4211 KPSP-KSBA

SKW4211 :: KPSP-KSBA

FLIGHT INFORMATION

Flight Status: Arrived
Operator:
SkyWest Airlines
More flights by this operator :: More flights under this callsign
Pilot: Ryan L. (9775)
Aircraft: MCDONNELL-DOUGLAS MD-88
(MD88)
More flights by this aircraft type
Origin: KPSP Palm Springs Intl
United States
Destination: KSBA Santa Barbara Mun
United States
More flights between these airports :: More routes between these airports
Route: +CATH1 PSP PMD FIM RZS
File this flight plan on PilotEdge
Remarks:
Altitude:
(Current/Filed)
12,000ft
Speed:
(Current/Filed)
340kts
Departed: 05-Oct-17 04:17 PM
Arrived: 05-Oct-17 05:01 PM
Distance/Time
Traveled:
169nm/0:44
Distance/Time
To Go:
Arrived

Flight Plot

Page will automatically refresh every two minutes.

Flight plan parsing failed; only flown route is shown


Map Options




Map Legend


Flown Route
Filed Route
Departure Airport
Arrival Airport
Navaid (VOR, NDB)
Fix

Horizontal Profiles

Position Reports

Time Latitude Longitude Heading Altitude Ground
Speed
05-Oct-17 15:45 33.824338 -116.507645 210 483ft 0kts
05-Oct-17 15:46 33.824338 -116.507645 210 483ft 0kts
05-Oct-17 15:47 33.824338 -116.507645 210 483ft 0kts
05-Oct-17 15:48 33.824338 -116.507645 210 483ft 0kts
05-Oct-17 15:49 33.824338 -116.507645 210 483ft 0kts
05-Oct-17 15:50 33.824338 -116.507645 210 483ft 0kts
05-Oct-17 15:51 33.824338 -116.507645 210 483ft 0kts
05-Oct-17 15:52 33.824338 -116.507645 210 483ft 0kts
05-Oct-17 15:53 33.824338 -116.507645 210 483ft 0kts
05-Oct-17 15:54 33.824338 -116.507645 210 483ft 0kts
05-Oct-17 15:55 33.824338 -116.507645 210 483ft 0kts
05-Oct-17 15:56 33.824338 -116.507645 210 483ft 0kts
05-Oct-17 15:57 33.824338 -116.507645 210 483ft 0kts
05-Oct-17 15:58 33.824338 -116.507645 210 483ft 0kts
05-Oct-17 15:59 33.824338 -116.507645 210 483ft 0kts
05-Oct-17 16:00 33.824338 -116.507645 210 483ft 0kts
05-Oct-17 16:01 33.824338 -116.507645 210 483ft 0kts
05-Oct-17 16:02 33.824338 -116.507645 210 483ft 0kts
05-Oct-17 16:03 33.824338 -116.507645 210 483ft 0kts
05-Oct-17 16:04 33.824683 -116.507410 191 483ft 2kts
05-Oct-17 16:05 33.825081 -116.507546 139 483ft 0kts
05-Oct-17 16:06 33.825081 -116.507546 139 483ft 0kts
05-Oct-17 16:07 33.825081 -116.507546 139 483ft 0kts
05-Oct-17 16:08 33.825081 -116.507546 139 483ft 0kts
05-Oct-17 16:09 33.825081 -116.507546 139 483ft 0kts
05-Oct-17 16:10 33.825081 -116.507546 139 483ft 0kts
05-Oct-17 16:11 33.825081 -116.507546 139 483ft 0kts
05-Oct-17 16:12 33.825081 -116.507546 139 483ft 0kts
05-Oct-17 16:13 33.825081 -116.507546 139 483ft 0kts
05-Oct-17 16:14 33.825081 -116.507546 139 483ft 0kts
05-Oct-17 16:15 33.824912 -116.506714 70 483ft 3kts
05-Oct-17 16:16 33.822419 -116.503238 143 483ft 22kts
05-Oct-17 16:17 33.818511 -116.499066 85 483ft 0kts
05-Oct-17 16:18 33.818511 -116.499066 85 483ft 0kts
05-Oct-17 16:19 33.818521 -116.498893 85 483ft 6kts
05-Oct-17 16:20 33.819136 -116.498275 324 483ft 0kts
05-Oct-17 16:21 33.831401 -116.509107 324 551ft 169kts
05-Oct-17 16:22 33.872885 -116.545472 323 3363ft 196kts
05-Oct-17 16:23 33.923969 -116.571479 17 5567ft 244kts
05-Oct-17 16:24 33.949576 -116.503017 126 8360ft 281kts
05-Oct-17 16:25 33.885541 -116.455007 147 11337ft 290kts
05-Oct-17 16:26 33.835904 -116.379796 98 12993ft 312kts
05-Oct-17 16:27 33.865236 -116.278730 28 12837ft 342kts
05-Oct-17 16:28 33.938611 -116.312305 292 13378ft 331kts
05-Oct-17 16:29 33.975963 -116.415971 295 14509ft 343kts
05-Oct-17 16:30 34.018417 -116.520672 293 16312ft 353kts
05-Oct-17 16:31 34.060695 -116.628306 293 18171ft 361kts
05-Oct-17 16:32 34.100102 -116.728762 292 19847ft 365kts
05-Oct-17 16:33 34.143213 -116.838453 292 20310ft 373kts
05-Oct-17 16:34 34.190388 -116.958320 293 20320ft 406kts
05-Oct-17 16:35 34.238842 -117.080997 293 20310ft 406kts
05-Oct-17 16:36 34.287470 -117.203836 293 20310ft 406kts
05-Oct-17 16:37 34.336190 -117.326610 293 20149ft 407kts
05-Oct-17 16:38 34.385150 -117.449667 293 20146ft 407kts
05-Oct-17 16:39 34.434351 -117.573037 293 20145ft 407kts
05-Oct-17 16:40 34.480505 -117.688492 293 20045ft 405kts
05-Oct-17 16:41 34.527091 -117.804734 293 20043ft 404kts
05-Oct-17 16:42 34.576190 -117.926971 293 20042ft 403kts
05-Oct-17 16:43 34.617751 -118.038309 281 20084ft 401kts
05-Oct-17 16:44 34.598481 -118.168193 246 20103ft 403kts
05-Oct-17 16:45 34.554586 -118.293025 248 20120ft 403kts
05-Oct-17 16:46 34.513971 -118.412780 248 20103ft 366kts
05-Oct-17 16:47 34.476195 -118.524786 249 18381ft 353kts
05-Oct-17 16:48 34.440337 -118.631409 249 16594ft 337kts
05-Oct-17 16:49 34.407494 -118.729315 248 15034ft 323kts
05-Oct-17 16:50 34.379936 -118.811646 249 14045ft 312kts
05-Oct-17 16:51 34.362645 -118.929182 284 14002ft 318kts
05-Oct-17 16:52 34.382742 -119.034425 281 12534ft 321kts
05-Oct-17 16:53 34.400673 -119.138891 281 10737ft 314kts
05-Oct-17 16:54 34.417162 -119.240895 270 8989ft 309kts
05-Oct-17 16:55 34.387965 -119.316878 242 7521ft 293kts
05-Oct-17 16:56 34.346007 -119.405409 242 5951ft 233kts
05-Oct-17 16:57 34.314984 -119.470878 242 5959ft 223kts
05-Oct-17 16:58 34.320625 -119.528553 292 4477ft 217kts
05-Oct-17 16:59 34.342567 -119.591830 294 2729ft 194kts
05-Oct-17 17:00 34.382531 -119.630463 331 2177ft 185kts
05-Oct-17 17:01 34.409357 -119.675044 284 2175ft 165kts
05-Oct-17 17:02 34.423386 -119.727488 287 1796ft 160kts
05-Oct-17 17:03 34.429101 -119.775352 266 975ft 142kts
05-Oct-17 17:04 34.428137 -119.822275 267 271ft 138kts
05-Oct-17 17:05 34.427510 -119.852980 267 19ft 25kts
05-Oct-17 17:06 34.426430 -119.851067 88 19ft 9kts
05-Oct-17 17:07 34.426555 -119.844445 87 19ft 26kts
05-Oct-17 17:08 34.426659 -119.839798 86 19ft 0kts
05-Oct-17 17:09 34.425571 -119.837926 167 19ft 10kts
05-Oct-17 17:10 34.424854 -119.837166 115 19ft 0kts
05-Oct-17 17:11 34.424854 -119.837166 115 19ft 0kts
05-Oct-17 17:12 34.424854 -119.837166 115 19ft 0kts

Navigation Log

Ident Type
Flight plan parsing failed, navigation log unavailable